sensor_id;sensor_type;location;lat;lon;timestamp;temperature;humidity
30851;DHT22;17567;48.382;9.102;2023-08-17T13:24:10;25.20;99.90
30851;DHT22;17567;48.382;9.102;2023-08-17T13:29:11;25.00;99.90
30851;DHT22;17567;48.382;9.102;2023-08-17T13:34:12;24.80;99.90
30851;DHT22;17567;48.382;9.102;2023-08-17T13:39:12;24.60;99.90
30851;DHT22;17567;48.382;9.102;2023-08-17T13:44:13;24.40;99.90
30851;DHT22;17567;48.382;9.102;2023-08-17T13:49:14;24.30;99.90
30851;DHT22;17567;48.382;9.102;2023-08-17T13:54:14;24.10;99.90
30851;DHT22;17567;48.382;9.102;2023-08-17T13:59:15;23.90;99.90
30851;DHT22;17567;48.382;9.102;2023-08-17T14:04:15;23.70;99.90
30851;DHT22;17567;48.382;9.102;2023-08-17T14:09:18;23.70;99.90
30851;DHT22;17567;48.382;9.102;2023-08-17T14:14:19;23.70;99.90
30851;DHT22;17567;48.382;9.102;2023-08-17T14:19:19;24.10;99.90
30851;DHT22;17567;48.382;9.102;2023-08-17T14:24:20;24.80;99.90
30851;DHT22;17567;48.382;9.102;2023-08-17T18:00:12;26.30;99.90
30851;DHT22;17567;48.382;9.102;2023-08-17T18:05:14;26.00;99.90
30851;DHT22;17567;48.382;9.102;2023-08-17T18:10:14;25.80;99.90
30851;DHT22;17567;48.382;9.102;2023-08-17T18:15:15;25.70;99.90
30851;DHT22;17567;48.382;9.102;2023-08-17T18:20:16;25.60;99.90
30851;DHT22;17567;48.382;9.102;2023-08-17T18:25:18;25.20;99.90
30851;DHT22;17567;48.382;9.102;2023-08-17T18:30:19;25.00;99.90
30851;DHT22;17567;48.382;9.102;2023-08-17T18:50:27;24.60;99.90
30851;DHT22;17567;48.382;9.102;2023-08-17T18:55:31;24.60;99.90
30851;DHT22;17567;48.382;9.102;2023-08-17T19:00:32;24.20;99.90
30851;DHT22;17567;48.382;9.102;2023-08-17T19:05:33;24.10;99.90
30851;DHT22;17567;48.382;9.102;2023-08-17T19:10:34;23.90;99.90
30851;DHT22;17567;48.382;9.102;2023-08-17T19:15:34;23.70;99.90
30851;DHT22;17567;48.382;9.102;2023-08-17T19:20:35;23.50;99.90
30851;DHT22;17567;48.382;9.102;2023-08-17T19:25:36;23.10;99.90
30851;DHT22;17567;48.382;9.102;2023-08-17T19:30:37;23.00;99.90
30851;DHT22;17567;48.382;9.102;2023-08-17T19:35:37;22.80;99.90
30851;DHT22;17567;48.382;9.102;2023-08-17T19:40:38;22.80;99.90
30851;DHT22;17567;48.382;9.102;2023-08-17T19:45:40;22.70;99.90
30851;DHT22;17567;48.382;9.102;2023-08-17T19:50:41;22.70;99.90
30851;DHT22;17567;48.382;9.102;2023-08-17T19:55:42;22.70;99.90
30851;DHT22;17567;48.382;9.102;2023-08-17T20:00:42;22.70;99.90
30851;DHT22;17567;48.382;9.102;2023-08-17T20:05:43;22.60;99.90
30851;DHT22;17567;48.382;9.102;2023-08-17T20:10:43;22.50;99.90
30851;DHT22;17567;48.382;9.102;2023-08-17T20:15:44;22.20;99.90
30851;DHT22;17567;48.382;9.102;2023-08-17T20:20:52;21.90;99.90
30851;DHT22;17567;48.382;9.102;2023-08-17T20:25:56;22.00;99.90
30851;DHT22;17567;48.382;9.102;2023-08-17T20:30:58;22.10;99.90
30851;DHT22;17567;48.382;9.102;2023-08-17T20:35:59;22.00;99.90
30851;DHT22;17567;48.382;9.102;2023-08-17T20:41:02;21.90;99.90
30851;DHT22;17567;48.382;9.102;2023-08-17T20:46:03;21.90;99.90
30851;DHT22;17567;48.382;9.102;2023-08-17T20:51:05;21.80;99.90
30851;DHT22;17567;48.382;9.102;2023-08-17T20:56:06;21.60;99.90
30851;DHT22;17567;48.382;9.102;2023-08-17T21:01:07;21.40;99.90
30851;DHT22;17567;48.382;9.102;2023-08-17T21:06:09;21.40;99.90
30851;DHT22;17567;48.382;9.102;2023-08-17T21:11:10;21.40;99.90
30851;DHT22;17567;48.382;9.102;2023-08-17T21:16:11;21.30;99.90
30851;DHT22;17567;48.382;9.102;2023-08-17T21:21:11;21.40;99.90
30851;DHT22;17567;48.382;9.102;2023-08-17T21:26:12;21.40;99.90
30851;DHT22;17567;48.382;9.102;2023-08-17T21:31:12;21.30;99.90
30851;DHT22;17567;48.382;9.102;2023-08-17T21:36:13;21.30;99.90
30851;DHT22;17567;48.382;9.102;2023-08-17T21:41:14;21.30;99.90
30851;DHT22;17567;48.382;9.102;2023-08-17T21:46:14;21.20;99.90
30851;DHT22;17567;48.382;9.102;2023-08-17T21:51:15;21.10;99.90
30851;DHT22;17567;48.382;9.102;2023-08-17T21:56:16;21.00;99.90
30851;DHT22;17567;48.382;9.102;2023-08-17T22:01:16;20.80;99.90
30851;DHT22;17567;48.382;9.102;2023-08-17T22:06:17;20.70;99.90
30851;DHT22;17567;48.382;9.102;2023-08-17T22:11:18;20.60;99.90
30851;DHT22;17567;48.382;9.102;2023-08-17T22:16:19;20.50;99.90
30851;DHT22;17567;48.382;9.102;2023-08-17T22:21:19;20.50;99.90
30851;DHT22;17567;48.382;9.102;2023-08-17T22:26:20;20.40;99.90
30851;DHT22;17567;48.382;9.102;2023-08-17T22:31:20;20.20;99.90
30851;DHT22;17567;48.382;9.102;2023-08-17T22:36:21;20.10;99.90
30851;DHT22;17567;48.382;9.102;2023-08-17T22:41:22;20.10;99.90
30851;DHT22;17567;48.382;9.102;2023-08-17T22:46:22;20.10;99.90
30851;DHT22;17567;48.382;9.102;2023-08-17T22:51:23;20.10;99.90
30851;DHT22;17567;48.382;9.102;2023-08-17T22:56:24;20.00;99.90
30851;DHT22;17567;48.382;9.102;2023-08-17T23:01:25;20.00;99.90
30851;DHT22;17567;48.382;9.102;2023-08-17T23:06:26;19.90;99.90
30851;DHT22;17567;48.382;9.102;2023-08-17T23:11:26;19.90;99.90
30851;DHT22;17567;48.382;9.102;2023-08-17T23:16:27;19.80;99.90
30851;DHT22;17567;48.382;9.102;2023-08-17T23:21:28;19.70;99.90
30851;DHT22;17567;48.382;9.102;2023-08-17T23:26:30;19.60;99.90
30851;DHT22;17567;48.382;9.102;2023-08-17T23:31:31;19.60;99.90
30851;DHT22;17567;48.382;9.102;2023-08-17T23:36:31;19.30;99.90
30851;DHT22;17567;48.382;9.102;2023-08-17T23:41:32;19.20;99.90
30851;DHT22;17567;48.382;9.102;2023-08-17T23:46:33;19.20;99.90
30851;DHT22;17567;48.382;9.102;2023-08-17T23:51:33;19.10;99.90
30851;DHT22;17567;48.382;9.102;2023-08-17T23:56:34;19.10;99.90
